sensor_id;sensor_type;location;lat;lon;timestamp;P1;durP1;ratioP1;P2;durP2;ratioP2
8610;SDS011;4343;53.648;10.098;2023-07-22T00:02:10;3.92;;;3.63;;
8610;SDS011;4343;53.648;10.098;2023-07-22T00:04:36;3.95;;;3.72;;
8610;SDS011;4343;53.648;10.098;2023-07-22T00:07:02;4.22;;;3.90;;
8610;SDS011;4343;53.648;10.098;2023-07-22T00:09:28;4.10;;;3.90;;
8610;SDS011;4343;53.648;10.098;2023-07-22T00:11:54;4.50;;;4.15;;
8610;SDS011;4343;53.648;10.098;2023-07-22T00:14:19;4.57;;;4.18;;
8610;SDS011;4343;53.648;10.098;2023-07-22T00:16:45;4.90;;;4.50;;
8610;SDS011;4343;53.648;10.098;2023-07-22T00:19:10;4.70;;;4.40;;
8610;SDS011;4343;53.648;10.098;2023-07-22T00:21:36;4.70;;;4.38;;
8610;SDS011;4343;53.648;10.098;2023-07-22T00:24:01;4.57;;;4.28;;
8610;SDS011;4343;53.648;10.098;2023-07-22T00:26:27;5.00;;;4.60;;
8610;SDS011;4343;53.648;10.098;2023-07-22T00:28:53;4.90;;;4.60;;
8610;SDS011;4343;53.648;10.098;2023-07-22T00:31:18;4.75;;;4.35;;
8610;SDS011;4343;53.648;10.098;2023-07-22T00:33:44;4.93;;;4.63;;
8610;SDS011;4343;53.648;10.098;2023-07-22T00:36:09;4.78;;;4.47;;
8610;SDS011;4343;53.648;10.098;2023-07-22T00:38:35;4.80;;;4.40;;
8610;SDS011;4343;53.648;10.098;2023-07-22T00:41:00;5.75;;;5.28;;
8610;SDS011;4343;53.648;10.098;2023-07-22T00:43:29;4.82;;;4.50;;
8610;SDS011;4343;53.648;10.098;2023-07-22T00:45:55;5.47;;;5.15;;
8610;SDS011;4343;53.648;10.098;2023-07-22T00:48:20;5.93;;;5.50;;
8610;SDS011;4343;53.648;10.098;2023-07-22T00:50:47;5.38;;;4.97;;
8610;SDS011;4343;53.648;10.098;2023-07-22T00:53:12;5.05;;;4.65;;
8610;SDS011;4343;53.648;10.098;2023-07-22T00:55:39;4.63;;;4.38;;
8610;SDS011;4343;53.648;10.098;2023-07-22T00:58:06;5.93;;;5.43;;
8610;SDS011;4343;53.648;10.098;2023-07-22T01:00:31;5.07;;;4.68;;
8610;SDS011;4343;53.648;10.098;2023-07-22T01:02:57;5.50;;;5.05;;
8610;SDS011;4343;53.648;10.098;2023-07-22T01:05:23;5.82;;;5.43;;
8610;SDS011;4343;53.648;10.098;2023-07-22T01:07:51;5.68;;;4.93;;
8610;SDS011;4343;53.648;10.098;2023-07-22T01:10:17;5.82;;;5.22;;
8610;SDS011;4343;53.648;10.098;2023-07-22T01:12:44;5.40;;;4.90;;
8610;SDS011;4343;53.648;10.098;2023-07-22T01:15:10;5.20;;;4.80;;
8610;SDS011;4343;53.648;10.098;2023-07-22T01:17:36;4.93;;;4.43;;
8610;SDS011;4343;53.648;10.098;2023-07-22T01:20:03;6.00;;;4.80;;
8610;SDS011;4343;53.648;10.098;2023-07-22T01:22:29;6.25;;;5.75;;
8610;SDS011;4343;53.648;10.098;2023-07-22T01:24:57;5.32;;;4.93;;
8610;SDS011;4343;53.648;10.098;2023-07-22T01:27:23;6.20;;;5.70;;
8610;SDS011;4343;53.648;10.098;2023-07-22T01:29:52;5.90;;;5.50;;
8610;SDS011;4343;53.648;10.098;2023-07-22T01:32:18;5.28;;;4.90;;
8610;SDS011;4343;53.648;10.098;2023-07-22T01:34:45;5.68;;;5.20;;
8610;SDS011;4343;53.648;10.098;2023-07-22T01:37:10;5.78;;;5.28;;
8610;SDS011;4343;53.648;10.098;2023-07-22T01:39:36;5.75;;;5.25;;
8610;SDS011;4343;53.648;10.098;2023-07-22T01:42:02;5.75;;;5.22;;
8610;SDS011;4343;53.648;10.098;2023-07-22T01:44:28;6.20;;;5.70;;
8610;SDS011;4343;53.648;10.098;2023-07-22T01:46:53;6.22;;;5.72;;
8610;SDS011;4343;53.648;10.098;2023-07-22T01:49:19;6.03;;;5.53;;
8610;SDS011;4343;53.648;10.098;2023-07-22T01:51:45;9.00;;;6.32;;
8610;SDS011;4343;53.648;10.098;2023-07-22T01:54:11;5.88;;;5.43;;
8610;SDS011;4343;53.648;10.098;2023-07-22T01:56:37;5.45;;;5.00;;
8610;SDS011;4343;53.648;10.098;2023-07-22T01:59:03;5.85;;;5.45;;
8610;SDS011;4343;53.648;10.098;2023-07-22T02:01:29;6.40;;;5.80;;
8610;SDS011;4343;53.648;10.098;2023-07-22T02:03:55;5.88;;;5.32;;
8610;SDS011;4343;53.648;10.098;2023-07-22T02:06:20;6.18;;;5.68;;
8610;SDS011;4343;53.648;10.098;2023-07-22T02:08:46;6.03;;;5.57;;
8610;SDS011;4343;53.648;10.098;2023-07-22T02:11:11;8.10;;;5.45;;
8610;SDS011;4343;53.648;10.098;2023-07-22T02:13:37;6.47;;;5.63;;
8610;SDS011;4343;53.648;10.098;2023-07-22T02:16:03;6.15;;;5.65;;
8610;SDS011;4343;53.648;10.098;2023-07-22T02:18:29;5.82;;;5.43;;
8610;SDS011;4343;53.648;10.098;2023-07-22T02:20:55;5.95;;;5.10;;
8610;SDS011;4343;53.648;10.098;2023-07-22T02:23:22;6.28;;;5.60;;
8610;SDS011;4343;53.648;10.098;2023-07-22T02:25:48;6.70;;;6.10;;
8610;SDS011;4343;53.648;10.098;2023-07-22T02:28:15;6.35;;;5.60;;
8610;SDS011;4343;53.648;10.098;2023-07-22T02:30:40;5.70;;;5.20;;
8610;SDS011;4343;53.648;10.098;2023-07-22T02:33:07;7.03;;;5.85;;
8610;SDS011;4343;53.648;10.098;2023-07-22T02:35:33;6.53;;;5.78;;
8610;SDS011;4343;53.648;10.098;2023-07-22T02:37:59;6.00;;;5.25;;
8610;SDS011;4343;53.648;10.098;2023-07-22T02:40:24;6.22;;;5.40;;
8610;SDS011;4343;53.648;10.098;2023-07-22T02:42:50;6.03;;;5.47;;
8610;SDS011;4343;53.648;10.098;2023-07-22T02:45:16;6.15;;;5.53;;
8610;SDS011;4343;53.648;10.098;2023-07-22T02:47:41;6.65;;;6.00;;
8610;SDS011;4343;53.648;10.098;2023-07-22T02:50:07;6.70;;;6.05;;
8610;SDS011;4343;53.648;10.098;2023-07-22T02:52:33;10.90;;;6.30;;
8610;SDS011;4343;53.648;10.098;2023-07-22T02:55:07;6.32;;;5.72;;
8610;SDS011;4343;53.648;10.098;2023-07-22T02:57:36;7.22;;;5.90;;
8610;SDS011;4343;53.648;10.098;2023-07-22T03:00:02;7.90;;;6.25;;
8610;SDS011;4343;53.648;10.098;2023-07-22T03:02:38;6.68;;;5.97;;
8610;SDS011;4343;53.648;10.098;2023-07-22T03:05:04;6.35;;;5.72;;
8610;SDS011;4343;53.648;10.098;2023-07-22T03:07:33;7.53;;;5.75;;
8610;SDS011;4343;53.648;10.098;2023-07-22T03:09:59;6.47;;;5.20;;
8610;SDS011;4343;53.648;10.098;2023-07-22T03:12:25;6.00;;;5.40;;
8610;SDS011;4343;53.648;10.098;2023-07-22T03:14:52;6.47;;;5.88;;
8610;SDS011;4343;53.648;10.098;2023-07-22T03:17:18;5.97;;;5.47;;
8610;SDS011;4343;53.648;10.098;2023-07-22T03:19:43;5.82;;;5.30;;
8610;SDS011;4343;53.648;10.098;2023-07-22T03:22:09;6.13;;;5.53;;
8610;SDS011;4343;53.648;10.098;2023-07-22T03:24:36;7.72;;;5.15;;
8610;SDS011;4343;53.648;10.098;2023-07-22T03:27:01;5.70;;;5.28;;
8610;SDS011;4343;53.648;10.098;2023-07-22T03:29:27;7.05;;;5.20;;
8610;SDS011;4343;53.648;10.098;2023-07-22T03:31:53;5.60;;;4.97;;
8610;SDS011;4343;53.648;10.098;2023-07-22T03:34:18;6.47;;;5.43;;
8610;SDS011;4343;53.648;10.098;2023-07-22T03:36:44;5.43;;;4.93;;
8610;SDS011;4343;53.648;10.098;2023-07-22T03:39:11;7.28;;;6.38;;
8610;SDS011;4343;53.648;10.098;2023-07-22T03:41:36;7.55;;;5.55;;
8610;SDS011;4343;53.648;10.098;2023-07-22T03:44:02;6.20;;;5.53;;
8610;SDS011;4343;53.648;10.098;2023-07-22T03:46:28;6.28;;;5.70;;
8610;SDS011;4343;53.648;10.098;2023-07-22T03:48:53;6.85;;;6.05;;
8610;SDS011;4343;53.648;10.098;2023-07-22T03:51:19;6.15;;;5.55;;
8610;SDS011;4343;53.648;10.098;2023-07-22T03:53:44;6.43;;;5.82;;
8610;SDS011;4343;53.648;10.098;2023-07-22T03:56:10;5.55;;;5.15;;
8610;SDS011;4343;53.648;10.098;2023-07-22T03:58:35;6.90;;;5.80;;
8610;SDS011;4343;53.648;10.098;2023-07-22T04:01:01;6.40;;;5.80;;
8610;SDS011;4343;53.648;10.098;2023-07-22T04:03:26;7.90;;;5.97;;
8610;SDS011;4343;53.648;10.098;2023-07-22T04:05:56;6.63;;;5.75;;
8610;SDS011;4343;53.648;10.098;2023-07-22T04:08:22;6.18;;;5.40;;
8610;SDS011;4343;53.648;10.098;2023-07-22T04:10:51;6.80;;;6.20;;
8610;SDS011;4343;53.648;10.098;2023-07-22T04:13:17;6.07;;;5.43;;
8610;SDS011;4343;53.648;10.098;2023-07-22T04:15:43;7.00;;;5.68;;
8610;SDS011;4343;53.648;10.098;2023-07-22T04:18:09;8.20;;;5.93;;
8610;SDS011;4343;53.648;10.098;2023-07-22T04:20:35;8.70;;;6.25;;
8610;SDS011;4343;53.648;10.098;2023-07-22T04:23:00;6.90;;;6.15;;
8610;SDS011;4343;53.648;10.098;2023-07-22T04:25:26;6.50;;;5.88;;
8610;SDS011;4343;53.648;10.098;2023-07-22T04:27:51;6.50;;;5.88;;
8610;SDS011;4343;53.648;10.098;2023-07-22T04:30:17;6.65;;;5.93;;
8610;SDS011;4343;53.648;10.098;2023-07-22T04:32:47;7.00;;;6.30;;
8610;SDS011;4343;53.648;10.098;2023-07-22T04:35:16;7.93;;;5.95;;
8610;SDS011;4343;53.648;10.098;2023-07-22T04:37:44;9.43;;;6.07;;
8610;SDS011;4343;53.648;10.098;2023-07-22T04:40:13;6.68;;;5.82;;
8610;SDS011;4343;53.648;10.098;2023-07-22T04:42:39;5.70;;;5.20;;
8610;SDS011;4343;53.648;10.098;2023-07-22T04:45:06;6.30;;;5.80;;
8610;SDS011;4343;53.648;10.098;2023-07-22T04:47:33;6.90;;;6.18;;
8610;SDS011;4343;53.648;10.098;2023-07-22T04:49:59;6.93;;;5.60;;
8610;SDS011;4343;53.648;10.098;2023-07-22T04:52:24;6.55;;;5.78;;
8610;SDS011;4343;53.648;10.098;2023-07-22T04:54:50;6.18;;;5.40;;
8610;SDS011;4343;53.648;10.098;2023-07-22T04:57:15;5.70;;;5.10;;
8610;SDS011;4343;53.648;10.098;2023-07-22T04:59:42;6.15;;;5.55;;
8610;SDS011;4343;53.648;10.098;2023-07-22T05:02:07;6.65;;;5.70;;
8610;SDS011;4343;53.648;10.098;2023-07-22T05:04:33;5.93;;;5.40;;
8610;SDS011;4343;53.648;10.098;2023-07-22T05:06:59;6.45;;;5.32;;
8610;SDS011;4343;53.648;10.098;2023-07-22T05:09:25;6.00;;;5.25;;
8610;SDS011;4343;53.648;10.098;2023-07-22T05:11:50;5.68;;;5.10;;
8610;SDS011;4343;53.648;10.098;2023-07-22T05:14:16;5.80;;;5.30;;
8610;SDS011;4343;53.648;10.098;2023-07-22T05:16:41;6.68;;;5.38;;
8610;SDS011;4343;53.648;10.098;2023-07-22T05:19:07;5.68;;;5.18;;
8610;SDS011;4343;53.648;10.098;2023-07-22T05:21:33;5.65;;;5.18;;
8610;SDS011;4343;53.648;10.098;2023-07-22T05:23:58;6.03;;;4.80;;
8610;SDS011;4343;53.648;10.098;2023-07-22T05:26:24;6.70;;;6.00;;
8610;SDS011;4343;53.648;10.098;2023-07-22T05:28:50;7.63;;;6.13;;
8610;SDS011;4343;53.648;10.098;2023-07-22T05:31:15;6.50;;;5.85;;
8610;SDS011;4343;53.648;10.098;2023-07-22T05:33:41;6.35;;;5.75;;
8610;SDS011;4343;53.648;10.098;2023-07-22T05:36:07;6.15;;;5.55;;
8610;SDS011;4343;53.648;10.098;2023-07-22T05:38:32;7.00;;;5.43;;
8610;SDS011;4343;53.648;10.098;2023-07-22T05:40:58;5.70;;;5.10;;
8610;SDS011;4343;53.648;10.098;2023-07-22T05:43:24;6.15;;;5.55;;
8610;SDS011;4343;53.648;10.098;2023-07-22T05:45:49;6.13;;;5.68;;
8610;SDS011;4343;53.648;10.098;2023-07-22T05:48:15;5.93;;;4.88;;
8610;SDS011;4343;53.648;10.098;2023-07-22T05:50:41;5.53;;;5.03;;
8610;SDS011;4343;53.648;10.098;2023-07-22T05:53:07;6.22;;;4.80;;
8610;SDS011;4343;53.648;10.098;2023-07-22T05:55:32;5.55;;;5.05;;
8610;SDS011;4343;53.648;10.098;2023-07-22T05:57:58;5.70;;;4.97;;
8610;SDS011;4343;53.648;10.098;2023-07-22T06:00:24;5.35;;;4.85;;
8610;SDS011;4343;53.648;10.098;2023-07-22T06:02:50;4.78;;;4.47;;
8610;SDS011;4343;53.648;10.098;2023-07-22T06:05:16;5.30;;;4.90;;
8610;SDS011;4343;53.648;10.098;2023-07-22T06:07:41;5.07;;;4.50;;
8610;SDS011;4343;53.648;10.098;2023-07-22T06:10:07;4.93;;;4.53;;
8610;SDS011;4343;53.648;10.098;2023-07-22T06:12:33;5.57;;;5.03;;
8610;SDS011;4343;53.648;10.098;2023-07-22T06:15:00;4.85;;;4.40;;
8610;SDS011;4343;53.648;10.098;2023-07-22T06:17:25;4.32;;;3.95;;
8610;SDS011;4343;53.648;10.098;2023-07-22T06:19:51;5.10;;;4.28;;
8610;SDS011;4343;53.648;10.098;2023-07-22T06:22:16;4.82;;;4.35;;
8610;SDS011;4343;53.648;10.098;2023-07-22T06:24:42;4.68;;;4.28;;
8610;SDS011;4343;53.648;10.098;2023-07-22T06:27:07;4.57;;;4.18;;
8610;SDS011;4343;53.648;10.098;2023-07-22T06:29:33;3.55;;;3.33;;
8610;SDS011;4343;53.648;10.098;2023-07-22T06:31:58;3.80;;;3.45;;
8610;SDS011;4343;53.648;10.098;2023-07-22T06:34:24;3.70;;;3.33;;
8610;SDS011;4343;53.648;10.098;2023-07-22T06:36:49;3.85;;;3.55;;
8610;SDS011;4343;53.648;10.098;2023-07-22T06:39:15;4.40;;;3.38;;
8610;SDS011;4343;53.648;10.098;2023-07-22T06:41:40;3.50;;;3.20;;
8610;SDS011;4343;53.648;10.098;2023-07-22T06:44:06;4.00;;;3.22;;
8610;SDS011;4343;53.648;10.098;2023-07-22T06:46:31;3.53;;;3.33;;
8610;SDS011;4343;53.648;10.098;2023-07-22T06:48:57;3.90;;;3.15;;
8610;SDS011;4343;53.648;10.098;2023-07-22T06:51:22;3.03;;;2.78;;
8610;SDS011;4343;53.648;10.098;2023-07-22T06:53:48;3.03;;;2.60;;
8610;SDS011;4343;53.648;10.098;2023-07-22T06:56:13;2.90;;;2.70;;
8610;SDS011;4343;53.648;10.098;2023-07-22T06:58:39;4.03;;;2.97;;
8610;SDS011;4343;53.648;10.098;2023-07-22T07:01:04;2.97;;;2.78;;
8610;SDS011;4343;53.648;10.098;2023-07-22T07:03:30;3.40;;;3.10;;
8610;SDS011;4343;53.648;10.098;2023-07-22T07:05:55;4.40;;;3.20;;
8610;SDS011;4343;53.648;10.098;2023-07-22T07:08:22;3.13;;;2.95;;
8610;SDS011;4343;53.648;10.098;2023-07-22T07:10:48;3.35;;;2.92;;
8610;SDS011;4343;53.648;10.098;2023-07-22T07:13:14;3.95;;;2.83;;
8610;SDS011;4343;53.648;10.098;2023-07-22T07:15:40;2.65;;;2.45;;
8610;SDS011;4343;53.648;10.098;2023-07-22T07:18:06;3.15;;;2.85;;
8610;SDS011;4343;53.648;10.098;2023-07-22T07:20:31;3.65;;;2.10;;
8610;SDS011;4343;53.648;10.098;2023-07-22T07:22:57;2.25;;;2.00;;
8610;SDS011;4343;53.648;10.098;2023-07-22T07:25:22;2.80;;;2.15;;
8610;SDS011;4343;53.648;10.098;2023-07-22T07:27:48;2.10;;;1.90;;
8610;SDS011;4343;53.648;10.098;2023-07-22T07:30:13;1.65;;;1.55;;
8610;SDS011;4343;53.648;10.098;2023-07-22T07:32:39;1.90;;;1.80;;
8610;SDS011;4343;53.648;10.098;2023-07-22T07:35:05;2.00;;;1.83;;
8610;SDS011;4343;53.648;10.098;2023-07-22T07:37:31;3.45;;;2.10;;
8610;SDS011;4343;53.648;10.098;2023-07-22T07:39:57;1.90;;;1.80;;
8610;SDS011;4343;53.648;10.098;2023-07-22T07:42:25;1.70;;;1.60;;
8610;SDS011;4343;53.648;10.098;2023-07-22T07:44:54;2.00;;;1.70;;
8610;SDS011;4343;53.648;10.098;2023-07-22T07:47:19;1.90;;;1.80;;
8610;SDS011;4343;53.648;10.098;2023-07-22T07:49:45;2.22;;;1.88;;
8610;SDS011;4343;53.648;10.098;2023-07-22T07:52:11;1.85;;;1.75;;
8610;SDS011;4343;53.648;10.098;2023-07-22T07:54:36;1.90;;;1.75;;
8610;SDS011;4343;53.648;10.098;2023-07-22T07:57:02;4.45;;;1.77;;
8610;SDS011;4343;53.648;10.098;2023-07-22T07:59:27;1.60;;;1.50;;
8610;SDS011;4343;53.648;10.098;2023-07-22T08:01:53;1.58;;;1.48;;
8610;SDS011;4343;53.648;10.098;2023-07-22T08:04:19;1.25;;;1.25;;
8610;SDS011;4343;53.648;10.098;2023-07-22T08:06:44;1.92;;;1.30;;
8610;SDS011;4343;53.648;10.098;2023-07-22T08:09:10;1.88;;;1.52;;
8610;SDS011;4343;53.648;10.098;2023-07-22T08:11:36;1.50;;;1.40;;
8610;SDS011;4343;53.648;10.098;2023-07-22T08:14:03;2.60;;;1.48;;
8610;SDS011;4343;53.648;10.098;2023-07-22T08:16:30;1.77;;;1.42;;
8610;SDS011;4343;53.648;10.098;2023-07-22T08:18:56;1.50;;;1.40;;
8610;SDS011;4343;53.648;10.098;2023-07-22T08:21:21;1.45;;;1.45;;
8610;SDS011;4343;53.648;10.098;2023-07-22T08:23:47;3.30;;;1.90;;
8610;SDS011;4343;53.648;10.098;2023-07-22T08:26:12;2.10;;;2.00;;
8610;SDS011;4343;53.648;10.098;2023-07-22T08:28:38;1.92;;;1.77;;
8610;SDS011;4343;53.648;10.098;2023-07-22T08:31:03;1.65;;;1.55;;
8610;SDS011;4343;53.648;10.098;2023-07-22T08:33:30;2.00;;;1.90;;
8610;SDS011;4343;53.648;10.098;2023-07-22T08:35:55;1.50;;;1.40;;
8610;SDS011;4343;53.648;10.098;2023-07-22T08:38:21;1.67;;;1.63;;
8610;SDS011;4343;53.648;10.098;2023-07-22T08:40:50;1.40;;;1.40;;
8610;SDS011;4343;53.648;10.098;2023-07-22T08:43:16;1.50;;;1.50;;
8610;SDS011;4343;53.648;10.098;2023-07-22T08:45:45;2.25;;;1.60;;
8610;SDS011;4343;53.648;10.098;2023-07-22T08:48:12;1.80;;;1.35;;
8610;SDS011;4343;53.648;10.098;2023-07-22T08:50:49;1.40;;;1.40;;
8610;SDS011;4343;53.648;10.098;2023-07-22T08:53:19;2.30;;;1.50;;
8610;SDS011;4343;53.648;10.098;2023-07-22T08:55:45;1.60;;;1.42;;
8610;SDS011;4343;53.648;10.098;2023-07-22T08:58:12;1.75;;;1.65;;
8610;SDS011;4343;53.648;10.098;2023-07-22T09:00:39;1.73;;;1.40;;
8610;SDS011;4343;53.648;10.098;2023-07-22T09:03:05;2.35;;;1.50;;
8610;SDS011;4343;53.648;10.098;2023-07-22T09:05:32;2.05;;;1.85;;
8610;SDS011;4343;53.648;10.098;2023-07-22T09:07:58;1.67;;;1.10;;
8610;SDS011;4343;53.648;10.098;2023-07-22T09:10:27;1.27;;;1.27;;
8610;SDS011;4343;53.648;10.098;2023-07-22T09:12:53;1.80;;;1.48;;
8610;SDS011;4343;53.648;10.098;2023-07-22T09:15:19;1.52;;;1.25;;
8610;SDS011;4343;53.648;10.098;2023-07-22T09:17:46;2.45;;;1.38;;
8610;SDS011;4343;53.648;10.098;2023-07-22T09:20:12;2.08;;;1.67;;
8610;SDS011;4343;53.648;10.098;2023-07-22T09:22:45;1.00;;;1.00;;
8610;SDS011;4343;53.648;10.098;2023-07-22T09:27:42;1.23;;;1.20;;
8610;SDS011;4343;53.648;10.098;2023-07-22T09:30:19;1.00;;;1.00;;
8610;SDS011;4343;53.648;10.098;2023-07-22T09:32:55;1.30;;;0.90;;
8610;SDS011;4343;53.648;10.098;2023-07-22T09:35:22;1.60;;;1.02;;
8610;SDS011;4343;53.648;10.098;2023-07-22T09:37:49;1.50;;;1.30;;
8610;SDS011;4343;53.648;10.098;2023-07-22T09:40:16;1.08;;;1.08;;
8610;SDS011;4343;53.648;10.098;2023-07-22T09:42:45;1.00;;;0.95;;
8610;SDS011;4343;53.648;10.098;2023-07-22T09:45:14;1.35;;;1.25;;
8610;SDS011;4343;53.648;10.098;2023-07-22T09:47:41;2.45;;;1.10;;
8610;SDS011;4343;53.648;10.098;2023-07-22T09:50:11;1.33;;;1.17;;
8610;SDS011;4343;53.648;10.098;2023-07-22T09:52:43;1.30;;;1.20;;
8610;SDS011;4343;53.648;10.098;2023-07-22T09:55:17;1.08;;;1.00;;
8610;SDS011;4343;53.648;10.098;2023-07-22T09:57:49;2.28;;;1.27;;
8610;SDS011;4343;53.648;10.098;2023-07-22T10:00:16;1.02;;;1.02;;
8610;SDS011;4343;53.648;10.098;2023-07-22T10:02:44;2.10;;;1.00;;
8610;SDS011;4343;53.648;10.098;2023-07-22T10:05:15;1.35;;;1.25;;
8610;SDS011;4343;53.648;10.098;2023-07-22T10:07:43;1.45;;;1.35;;
8610;SDS011;4343;53.648;10.098;2023-07-22T10:10:12;1.10;;;1.10;;
8610;SDS011;4343;53.648;10.098;2023-07-22T10:12:40;1.95;;;1.27;;
8610;SDS011;4343;53.648;10.098;2023-07-22T10:15:07;1.20;;;1.20;;
8610;SDS011;4343;53.648;10.098;2023-07-22T10:17:34;0.80;;;0.80;;
8610;SDS011;4343;53.648;10.098;2023-07-22T10:19:59;1.23;;;1.17;;
8610;SDS011;4343;53.648;10.098;2023-07-22T10:22:30;1.20;;;1.20;;
8610;SDS011;4343;53.648;10.098;2023-07-22T10:24:55;1.35;;;1.25;;
8610;SDS011;4343;53.648;10.098;2023-07-22T10:27:22;1.20;;;1.10;;
8610;SDS011;4343;53.648;10.098;2023-07-22T10:29:48;1.85;;;1.38;;
8610;SDS011;4343;53.648;10.098;2023-07-22T10:32:14;1.15;;;1.15;;
8610;SDS011;4343;53.648;10.098;2023-07-22T10:34:42;1.35;;;1.35;;
8610;SDS011;4343;53.648;10.098;2023-07-22T10:37:09;1.10;;;1.10;;
8610;SDS011;4343;53.648;10.098;2023-07-22T10:39:35;3.40;;;1.65;;
8610;SDS011;4343;53.648;10.098;2023-07-22T10:42:04;1.27;;;1.17;;
8610;SDS011;4343;53.648;10.098;2023-07-22T10:44:30;1.15;;;1.15;;
8610;SDS011;4343;53.648;10.098;2023-07-22T10:46:58;1.67;;;1.58;;
8610;SDS011;4343;53.648;10.098;2023-07-22T10:49:24;1.58;;;1.48;;
8610;SDS011;4343;53.648;10.098;2023-07-22T10:52:06;1.10;;;1.10;;
8610;SDS011;4343;53.648;10.098;2023-07-22T10:54:33;2.72;;;1.67;;
8610;SDS011;4343;53.648;10.098;2023-07-22T10:57:04;1.60;;;1.50;;
8610;SDS011;4343;53.648;10.098;2023-07-22T10:59:50;1.70;;;1.20;;
8610;SDS011;4343;53.648;10.098;2023-07-22T11:02:26;1.48;;;1.30;;
8610;SDS011;4343;53.648;10.098;2023-07-22T11:04:57;1.33;;;1.33;;
8610;SDS011;4343;53.648;10.098;2023-07-22T11:07:31;1.60;;;1.60;;
8610;SDS011;4343;53.648;10.098;2023-07-22T11:09:57;1.75;;;1.60;;
8610;SDS011;4343;53.648;10.098;2023-07-22T11:12:24;1.80;;;1.70;;
8610;SDS011;4343;53.648;10.098;2023-07-22T11:14:50;1.67;;;1.40;;
8610;SDS011;4343;53.648;10.098;2023-07-22T11:17:17;1.60;;;1.60;;
8610;SDS011;4343;53.648;10.098;2023-07-22T11:19:53;1.42;;;1.40;;
8610;SDS011;4343;53.648;10.098;2023-07-22T11:22:20;2.28;;;1.52;;
8610;SDS011;4343;53.648;10.098;2023-07-22T11:24:45;1.50;;;1.40;;
8610;SDS011;4343;53.648;10.098;2023-07-22T11:27:11;1.50;;;1.50;;
8610;SDS011;4343;53.648;10.098;2023-07-22T11:29:37;2.20;;;1.45;;
8610;SDS011;4343;53.648;10.098;2023-07-22T11:32:03;1.67;;;1.58;;
8610;SDS011;4343;53.648;10.098;2023-07-22T11:34:29;1.70;;;1.70;;
8610;SDS011;4343;53.648;10.098;2023-07-22T11:36:55;1.92;;;1.70;;
8610;SDS011;4343;53.648;10.098;2023-07-22T11:39:22;1.90;;;1.80;;
8610;SDS011;4343;53.648;10.098;2023-07-22T11:41:49;2.03;;;1.92;;
8610;SDS011;4343;53.648;10.098;2023-07-22T11:44:17;3.50;;;2.03;;
8610;SDS011;4343;53.648;10.098;2023-07-22T11:49:28;2.10;;;2.00;;
8610;SDS011;4343;53.648;10.098;2023-07-22T11:54:25;2.20;;;2.10;;
8610;SDS011;4343;53.648;10.098;2023-07-22T11:56:52;2.72;;;2.55;;
8610;SDS011;4343;53.648;10.098;2023-07-22T11:59:31;2.13;;;2.03;;
8610;SDS011;4343;53.648;10.098;2023-07-22T12:01:59;2.90;;;2.20;;
8610;SDS011;4343;53.648;10.098;2023-07-22T12:04:25;2.75;;;2.65;;
8610;SDS011;4343;53.648;10.098;2023-07-22T12:06:51;2.50;;;2.40;;
8610;SDS011;4343;53.648;10.098;2023-07-22T12:09:16;2.70;;;2.42;;
8610;SDS011;4343;53.648;10.098;2023-07-22T12:11:42;2.83;;;2.30;;
8610;SDS011;4343;53.648;10.098;2023-07-22T12:14:08;2.83;;;2.67;;
8610;SDS011;4343;53.648;10.098;2023-07-22T12:16:38;2.67;;;2.58;;
8610;SDS011;4343;53.648;10.098;2023-07-22T12:19:05;2.63;;;2.53;;
8610;SDS011;4343;53.648;10.098;2023-07-22T12:21:32;2.47;;;2.38;;
8610;SDS011;4343;53.648;10.098;2023-07-22T12:23:58;3.00;;;2.90;;
8610;SDS011;4343;53.648;10.098;2023-07-22T12:26:24;2.90;;;2.80;;
8610;SDS011;4343;53.648;10.098;2023-07-22T12:28:49;3.47;;;3.22;;
8610;SDS011;4343;53.648;10.098;2023-07-22T12:31:15;2.95;;;2.85;;
8610;SDS011;4343;53.648;10.098;2023-07-22T12:33:41;3.05;;;2.90;;
8610;SDS011;4343;53.648;10.098;2023-07-22T12:36:07;3.10;;;2.97;;
8610;SDS011;4343;53.648;10.098;2023-07-22T12:38:32;2.80;;;2.70;;
8610;SDS011;4343;53.648;10.098;2023-07-22T12:40:58;3.33;;;3.10;;
8610;SDS011;4343;53.648;10.098;2023-07-22T12:43:23;4.03;;;3.83;;
8610;SDS011;4343;53.648;10.098;2023-07-22T12:45:49;3.55;;;3.40;;
8610;SDS011;4343;53.648;10.098;2023-07-22T12:48:15;3.00;;;2.90;;
8610;SDS011;4343;53.648;10.098;2023-07-22T12:50:42;3.58;;;3.35;;
8610;SDS011;4343;53.648;10.098;2023-07-22T12:53:08;3.38;;;3.28;;
8610;SDS011;4343;53.648;10.098;2023-07-22T12:55:33;3.70;;;3.50;;
8610;SDS011;4343;53.648;10.098;2023-07-22T12:57:59;3.97;;;3.67;;
8610;SDS011;4343;53.648;10.098;2023-07-22T13:00:25;4.68;;;4.15;;
8610;SDS011;4343;53.648;10.098;2023-07-22T13:02:50;3.75;;;3.55;;
8610;SDS011;4343;53.648;10.098;2023-07-22T13:05:16;4.20;;;3.97;;
8610;SDS011;4343;53.648;10.098;2023-07-22T13:07:41;4.22;;;3.92;;
8610;SDS011;4343;53.648;10.098;2023-07-22T13:10:07;3.83;;;3.65;;
8610;SDS011;4343;53.648;10.098;2023-07-22T13:12:36;3.70;;;3.50;;
8610;SDS011;4343;53.648;10.098;2023-07-22T13:15:02;4.00;;;3.70;;
8610;SDS011;4343;53.648;10.098;2023-07-22T13:17:28;3.75;;;3.58;;
8610;SDS011;4343;53.648;10.098;2023-07-22T13:19:53;3.80;;;3.60;;
8610;SDS011;4343;53.648;10.098;2023-07-22T13:22:19;4.43;;;4.03;;
8610;SDS011;4343;53.648;10.098;2023-07-22T13:24:44;5.07;;;4.30;;
8610;SDS011;4343;53.648;10.098;2023-07-22T13:27:10;4.15;;;3.85;;
8610;SDS011;4343;53.648;10.098;2023-07-22T13:29:35;5.18;;;4.88;;
8610;SDS011;4343;53.648;10.098;2023-07-22T13:32:01;5.38;;;4.88;;
8610;SDS011;4343;53.648;10.098;2023-07-22T13:34:26;4.50;;;4.30;;
8610;SDS011;4343;53.648;10.098;2023-07-22T13:36:52;4.50;;;4.20;;
8610;SDS011;4343;53.648;10.098;2023-07-22T13:39:17;4.82;;;4.63;;
8610;SDS011;4343;53.648;10.098;2023-07-22T13:41:43;4.30;;;4.10;;
8610;SDS011;4343;53.648;10.098;2023-07-22T13:44:09;4.25;;;4.05;;
8610;SDS011;4343;53.648;10.098;2023-07-22T13:46:34;4.60;;;4.30;;
8610;SDS011;4343;53.648;10.098;2023-07-22T13:49:00;4.57;;;4.38;;
8610;SDS011;4343;53.648;10.098;2023-07-22T13:51:25;4.43;;;4.22;;
8610;SDS011;4343;53.648;10.098;2023-07-22T13:53:51;5.28;;;4.82;;
8610;SDS011;4343;53.648;10.098;2023-07-22T13:56:19;4.68;;;4.47;;
8610;SDS011;4343;53.648;10.098;2023-07-22T13:58:45;5.28;;;4.78;;
8610;SDS011;4343;53.648;10.098;2023-07-22T14:01:11;5.53;;;5.13;;
8610;SDS011;4343;53.648;10.098;2023-07-22T14:03:38;5.45;;;5.05;;
8610;SDS011;4343;53.648;10.098;2023-07-22T14:06:03;5.20;;;4.90;;
8610;SDS011;4343;53.648;10.098;2023-07-22T14:08:29;5.68;;;5.18;;
8610;SDS011;4343;53.648;10.098;2023-07-22T14:10:54;5.38;;;4.95;;
8610;SDS011;4343;53.648;10.098;2023-07-22T14:13:20;5.35;;;4.93;;
8610;SDS011;4343;53.648;10.098;2023-07-22T14:15:45;5.03;;;4.63;;
8610;SDS011;4343;53.648;10.098;2023-07-22T14:18:11;5.70;;;5.18;;
8610;SDS011;4343;53.648;10.098;2023-07-22T14:20:41;5.15;;;4.82;;
8610;SDS011;4343;53.648;10.098;2023-07-22T14:23:10;5.05;;;4.65;;
8610;SDS011;4343;53.648;10.098;2023-07-22T14:25:36;5.07;;;4.70;;
8610;SDS011;4343;53.648;10.098;2023-07-22T14:28:01;5.63;;;5.32;;
8610;SDS011;4343;53.648;10.098;2023-07-22T14:30:27;5.10;;;4.70;;
8610;SDS011;4343;53.648;10.098;2023-07-22T14:32:53;5.38;;;5.00;;
8610;SDS011;4343;53.648;10.098;2023-07-22T14:35:18;5.22;;;4.93;;
8610;SDS011;4343;53.648;10.098;2023-07-22T14:37:44;5.40;;;5.00;;
8610;SDS011;4343;53.648;10.098;2023-07-22T14:40:11;5.00;;;4.70;;
8610;SDS011;4343;53.648;10.098;2023-07-22T14:42:36;5.47;;;5.18;;
8610;SDS011;4343;53.648;10.098;2023-07-22T14:45:02;5.68;;;5.28;;
8610;SDS011;4343;53.648;10.098;2023-07-22T14:47:28;5.65;;;5.25;;
8610;SDS011;4343;53.648;10.098;2023-07-22T14:49:54;5.75;;;5.28;;
8610;SDS011;4343;53.648;10.098;2023-07-22T14:52:19;5.60;;;5.20;;
8610;SDS011;4343;53.648;10.098;2023-07-22T14:54:45;5.70;;;5.30;;
8610;SDS011;4343;53.648;10.098;2023-07-22T14:57:10;5.40;;;5.00;;
8610;SDS011;4343;53.648;10.098;2023-07-22T14:59:36;5.55;;;5.15;;
8610;SDS011;4343;53.648;10.098;2023-07-22T15:02:01;5.93;;;5.43;;
8610;SDS011;4343;53.648;10.098;2023-07-22T15:04:27;5.28;;;4.97;;